Time;durP1;ratioP1;P1;durP2;ratioP2;P2;SDS_P1;SDS_P2;PMS_P1;PMS_P2;Temp;Humidity;BMP_temperature;BMP_pressure;BME280_temperature;BME280_humidity;BME280_pressure;Samples;Min_cycle;Max_cycle;Signal;HPM_P1;HPM_P2
2024/01/18 00:01:12;;;;;;;9.97;6.20;;;11.80;51.70;;;;;;5129912;27;20452;-76
2024/01/18 00:03:40;;;;;;;8.37;6.40;;;11.80;51.70;;;;;;5134127;27;20441;-76
2024/01/18 00:06:09;;;;;;;10.90;6.40;;;11.80;51.60;;;;;;5116285;27;20489;-77
2024/01/18 00:08:38;;;;;;;11.93;6.50;;;11.80;51.70;;;;;;5126315;27;20515;-77
2024/01/18 00:11:06;;;;;;;11.23;6.30;;;11.80;51.70;;;;;;5128790;28;20466;-77
2024/01/18 00:13:34;;;;;;;9.17;6.70;;;11.80;51.90;;;;;;5131697;28;20510;-76
2024/01/18 00:16:03;;;;;;;8.53;6.20;;;11.80;51.80;;;;;;5122583;28;20471;-77
2024/01/18 00:18:31;;;;;;;9.07;6.70;;;11.80;51.80;;;;;;5132244;28;20500;-78
2024/01/18 00:20:59;;;;;;;7.63;6.47;;;11.80;51.90;;;;;;5124961;28;20550;-76
2024/01/18 00:23:27;;;;;;;9.13;6.53;;;11.80;51.90;;;;;;5123588;27;20515;-78
2024/01/18 00:25:57;;;;;;;9.20;6.53;;;11.80;51.80;;;;;;5126713;27;20523;-78
2024/01/18 00:28:25;;;;;;;9.83;6.63;;;11.80;51.80;;;;;;5132231;27;20542;-77
2024/01/18 00:30:53;;;;;;;9.47;6.20;;;11.80;51.80;;;;;;5132602;27;20523;-79
2024/01/18 00:33:21;;;;;;;11.13;6.47;;;11.80;51.90;;;;;;5132310;27;20496;-77
2024/01/18 00:35:49;;;;;;;10.37;7.33;;;11.70;51.70;;;;;;5129543;27;20566;-79
2024/01/18 00:38:17;;;;;;;11.97;6.50;;;11.80;51.90;;;;;;5132637;27;20477;-78
2024/01/18 00:40:45;;;;;;;9.50;6.07;;;11.70;51.90;;;;;;5129552;27;20596;-77
2024/01/18 00:43:15;;;;;;;10.73;6.20;;;11.80;51.80;;;;;;5134542;27;20466;-77
2024/01/18 00:45:43;;;;;;;8.70;6.67;;;11.70;52.00;;;;;;5127973;27;20522;-77
2024/01/18 00:48:11;;;;;;;11.53;6.13;;;11.70;51.90;;;;;;5134579;27;20449;-77
2024/01/18 00:50:39;;;;;;;10.33;6.27;;;11.70;51.90;;;;;;5135198;27;20447;-77
2024/01/18 00:53:07;;;;;;;8.07;6.30;;;11.70;52.00;;;;;;5134008;27;20502;-78
2024/01/18 00:55:36;;;;;;;10.07;6.67;;;11.70;52.10;;;;;;5134377;27;20498;-79
2024/01/18 00:58:04;;;;;;;10.20;6.57;;;11.80;52.10;;;;;;5134686;27;20439;-76
2024/01/18 01:00:34;;;;;;;8.33;6.27;;;11.70;52.00;;;;;;5131503;27;20465;-76
2024/01/18 01:03:02;;;;;;;12.00;7.03;;;11.70;52.00;;;;;;5126364;27;20476;-78
2024/01/18 01:05:30;;;;;;;9.50;6.80;;;11.70;52.10;;;;;;5154931;27;20430;-76
2024/01/18 01:07:58;;;;;;;7.40;6.30;;;11.70;52.00;;;;;;5145367;27;20438;-77
2024/01/18 01:10:26;;;;;;;11.33;6.70;;;11.70;52.10;;;;;;5143156;27;20445;-76
2024/01/18 01:12:54;;;;;;;10.07;6.93;;;11.70;52.00;;;;;;5142161;27;20461;-77
2024/01/18 01:15:22;;;;;;;10.03;6.20;;;11.70;52.00;;;;;;5146998;27;20466;-76
2024/01/18 01:17:52;;;;;;;9.00;6.30;;;11.70;52.00;;;;;;5143506;27;20451;-77
2024/01/18 01:20:20;;;;;;;12.60;6.80;;;11.70;52.10;;;;;;5135566;27;20498;-78
2024/01/18 01:22:48;;;;;;;11.43;6.93;;;11.70;52.10;;;;;;5150147;27;20478;-77
2024/01/18 01:25:16;;;;;;;13.57;7.70;;;11.70;52.10;;;;;;5124041;27;20938;-77
2024/01/18 01:27:45;;;;;;;10.10;7.10;;;11.70;52.10;;;;;;5134003;27;20446;-77
2024/01/18 01:30:13;;;;;;;11.10;7.30;;;11.70;52.00;;;;;;5133608;27;20602;-78
2024/01/18 01:32:41;;;;;;;10.47;6.60;;;11.70;52.10;;;;;;5133654;27;20569;-78
2024/01/18 01:35:11;;;;;;;9.37;6.47;;;11.70;52.10;;;;;;5134553;27;20470;-77
2024/01/18 01:37:39;;;;;;;9.70;7.00;;;11.70;52.00;;;;;;5124869;27;20443;-78
2024/01/18 01:40:09;;;;;;;9.80;6.97;;;11.60;52.00;;;;;;5134018;27;20443;-77
2024/01/18 01:42:37;;;;;;;8.30;6.10;;;11.60;51.90;;;;;;5128281;27;20474;-79
2024/01/18 01:45:06;;;;;;;8.50;6.93;;;11.60;51.90;;;;;;5134297;27;20442;-79
2024/01/18 01:47:34;;;;;;;10.23;7.30;;;11.60;52.00;;;;;;5133923;27;20447;-78
2024/01/18 01:50:02;;;;;;;12.00;6.73;;;11.60;52.00;;;;;;5125015;27;20443;-78
2024/01/18 01:52:32;;;;;;;11.97;7.47;;;11.60;52.00;;;;;;5133261;27;20538;-78
2024/01/18 01:55:00;;;;;;;11.23;7.03;;;11.50;52.00;;;;;;5125211;27;20538;-77
2024/01/18 01:57:28;;;;;;;9.40;7.20;;;11.50;52.00;;;;;;5126365;27;20502;-77
2024/01/18 01:59:56;;;;;;;9.67;7.10;;;11.50;51.90;;;;;;5146526;27;20434;-75
2024/01/18 02:02:24;;;;;;;9.00;6.83;;;11.50;52.00;;;;;;5149259;27;20443;-75
2024/01/18 02:04:53;;;;;;;13.20;7.00;;;11.50;52.00;;;;;;5149356;27;20446;-75
2024/01/18 02:07:20;;;;;;;10.37;7.20;;;11.50;52.00;;;;;;5129720;27;20449;-76
2024/01/18 02:09:50;;;;;;;10.90;7.23;;;11.50;51.80;;;;;;5134227;27;20450;-76
2024/01/18 02:12:18;;;;;;;15.13;8.60;;;11.50;51.80;;;;;;5126738;27;20473;-77
2024/01/18 02:14:46;;;;;;;12.60;7.90;;;11.40;51.80;;;;;;5133306;27;20431;-76
2024/01/18 02:17:14;;;;;;;11.00;7.50;;;11.40;51.80;;;;;;5133063;27;20458;-76
2024/01/18 02:19:42;;;;;;;11.57;7.10;;;11.40;51.80;;;;;;5132806;27;20439;-77
2024/01/18 02:22:10;;;;;;;14.00;7.97;;;11.40;51.70;;;;;;5132804;27;20490;-78
2024/01/18 02:24:41;;;;;;;11.93;7.77;;;11.40;51.80;;;;;;5126700;27;20447;-78
2024/01/18 02:27:11;;;;;;;13.30;8.37;;;11.30;51.70;;;;;;5128537;27;20423;-77
2024/01/18 02:29:39;;;;;;;10.60;7.30;;;11.30;51.70;;;;;;5129685;27;20508;-75
2024/01/18 02:32:07;;;;;;;12.87;8.63;;;11.40;51.80;;;;;;5130384;27;20494;-77
2024/01/18 02:34:38;;;;;;;18.17;9.70;;;11.30;51.60;;;;;;5153419;27;20442;-77
2024/01/18 02:37:07;;;;;;;24.47;13.37;;;11.30;51.70;;;;;;5153359;27;20465;-77
2024/01/18 02:39:35;;;;;;;21.90;12.70;;;11.30;51.60;;;;;;5139330;27;20446;-76
2024/01/18 02:42:04;;;;;;;23.27;13.47;;;11.30;51.60;;;;;;5141993;27;20470;-77
2024/01/18 02:44:34;;;;;;;23.13;12.90;;;11.30;51.70;;;;;;5153157;27;20442;-77
2024/01/18 02:47:02;;;;;;;27.17;14.87;;;11.30;51.70;;;;;;5153526;27;20461;-77
2024/01/18 02:49:30;;;;;;;25.77;14.70;;;11.30;51.60;;;;;;5130796;27;20513;-76
2024/01/18 02:51:58;;;;;;;26.40;15.23;;;11.30;51.50;;;;;;5144691;27;20455;-80
2024/01/18 02:54:27;;;;;;;24.80;14.97;;;11.20;51.60;;;;;;5152558;27;20933;-78
2024/01/18 02:56:55;;;;;;;28.43;16.03;;;11.20;51.60;;;;;;5152499;27;20461;-78
2024/01/18 02:59:23;;;;;;;31.50;17.00;;;11.20;51.60;;;;;;5153586;27;20458;-79
2024/01/18 03:01:52;;;;;;;29.00;17.07;;;11.20;51.60;;;;;;5152893;27;20544;-79
2024/01/18 03:04:21;;;;;;;30.43;17.07;;;11.20;51.60;;;;;;5152820;27;20493;-77
2024/01/18 03:06:48;;;;;;;29.10;16.93;;;11.20;51.50;;;;;;5138377;27;20443;-76
2024/01/18 03:09:17;;;;;;;29.37;16.90;;;11.10;51.50;;;;;;5143482;27;20481;-78
2024/01/18 03:11:45;;;;;;;32.17;17.43;;;11.10;51.30;;;;;;5128726;27;20989;-78
2024/01/18 03:14:13;;;;;;;29.77;17.10;;;11.10;51.50;;;;;;5132732;27;20443;-79
2024/01/18 03:16:42;;;;;;;32.20;18.07;;;11.20;51.60;;;;;;5132505;27;20506;-77
2024/01/18 03:19:12;;;;;;;31.67;16.30;;;11.10;51.30;;;;;;5132176;27;20435;-77
2024/01/18 03:21:41;;;;;;;31.73;16.90;;;11.10;51.40;;;;;;5131866;27;20489;-77
2024/01/18 03:24:09;;;;;;;28.43;16.03;;;11.10;51.30;;;;;;5132260;27;20449;-77
2024/01/18 03:26:37;;;;;;;29.40;16.80;;;11.10;51.30;;;;;;5131900;27;20443;-76
2024/01/18 03:29:06;;;;;;;28.03;16.50;;;11.10;51.40;;;;;;5125115;27;20528;-78
2024/01/18 03:31:34;;;;;;;28.40;16.33;;;11.10;51.40;;;;;;5131378;27;20499;-77
2024/01/18 03:34:02;;;;;;;27.17;16.07;;;11.10;51.30;;;;;;5131876;27;20535;-77
2024/01/18 03:36:32;;;;;;;29.93;16.70;;;11.10;51.40;;;;;;5131980;27;20462;-78
2024/01/18 03:39:00;;;;;;;27.27;15.70;;;11.10;51.30;;;;;;5131830;27;20439;-78
2024/01/18 03:41:28;;;;;;;28.37;16.37;;;11.10;51.30;;;;;;5131619;27;20510;-78
2024/01/18 03:43:57;;;;;;;25.77;15.83;;;11.00;51.20;;;;;;5132025;27;20466;-77
2024/01/18 03:46:25;;;;;;;29.40;16.50;;;11.10;51.30;;;;;;5128307;27;20458;-77
2024/01/18 03:48:53;;;;;;;28.97;16.00;;;11.00;51.20;;;;;;5145740;27;20477;-78
2024/01/18 03:51:22;;;;;;;27.13;15.27;;;11.00;51.20;;;;;;5151698;27;20465;-78
2024/01/18 03:53:51;;;;;;;26.50;15.20;;;11.00;51.40;;;;;;5153059;27;20446;-76
2024/01/18 03:56:20;;;;;;;28.73;15.37;;;11.00;51.40;;;;;;5152391;27;20472;-77
2024/01/18 03:58:48;;;;;;;26.17;14.33;;;11.00;51.40;;;;;;5147036;27;20474;-78
2024/01/18 04:01:16;;;;;;;29.77;15.50;;;11.00;51.10;;;;;;5140533;27;20545;-77
2024/01/18 04:03:48;;;;;;;28.33;15.00;;;10.90;51.30;;;;;;5131697;27;20459;-77
2024/01/18 04:06:16;;;;;;;28.53;15.00;;;11.00;51.20;;;;;;5144957;27;20442;-78
2024/01/18 04:08:45;;;;;;;25.67;14.10;;;11.00;51.20;;;;;;5144754;27;20541;-78
2024/01/18 04:11:14;;;;;;;25.70;14.70;;;11.00;51.30;;;;;;5134730;27;20502;-78
2024/01/18 04:13:42;;;;;;;26.70;14.10;;;10.90;51.10;;;;;;5151811;27;20481;-78
2024/01/18 04:16:10;;;;;;;23.80;14.03;;;10.90;51.30;;;;;;5142752;27;20467;-77
2024/01/18 04:18:38;;;;;;;23.93;13.53;;;11.00;51.30;;;;;;5143880;27;20485;-76
2024/01/18 04:21:07;;;;;;;24.93;14.03;;;10.90;51.30;;;;;;5147053;27;20462;-77
2024/01/18 04:23:35;;;;;;;20.70;12.80;;;10.90;51.20;;;;;;5132264;27;20446;-79
2024/01/18 04:26:04;;;;;;;19.93;12.50;;;11.00;51.30;;;;;;5138116;27;20538;-80
2024/01/18 04:28:33;;;;;;;20.57;12.30;;;10.90;51.10;;;;;;5139612;27;20495;-77
2024/01/18 04:31:01;;;;;;;23.60;13.60;;;10.90;51.00;;;;;;5136065;27;20434;-77
2024/01/18 04:33:29;;;;;;;21.50;12.93;;;10.90;51.20;;;;;;5138849;27;20495;-77
2024/01/18 04:35:57;;;;;;;20.00;13.00;;;10.90;51.10;;;;;;5145539;27;20449;-78
2024/01/18 04:38:26;;;;;;;19.40;11.63;;;10.90;51.20;;;;;;5141037;27;20435;-76
2024/01/18 04:40:54;;;;;;;21.73;12.50;;;10.90;51.30;;;;;;5130459;28;20447;-78
2024/01/18 04:43:22;;;;;;;22.17;12.60;;;10.90;51.10;;;;;;5146858;27;20500;-78
2024/01/18 04:45:52;;;;;;;19.77;11.83;;;10.90;51.20;;;;;;5135530;27;20529;-77
2024/01/18 04:48:20;;;;;;;16.47;10.43;;;10.80;51.10;;;;;;5141797;27;20439;-76
2024/01/18 04:50:48;;;;;;;18.27;11.57;;;10.80;51.20;;;;;;5136197;27;20450;-76
2024/01/18 04:53:16;;;;;;;18.80;11.13;;;10.90;51.20;;;;;;5143082;27;20537;-78
2024/01/18 04:55:44;;;;;;;21.40;11.60;;;10.80;51.10;;;;;;5138395;27;20439;-79
2024/01/18 04:58:12;;;;;;;17.87;11.27;;;10.80;51.10;;;;;;5143552;27;20554;-78
2024/01/18 05:00:40;;;;;;;20.33;11.40;;;10.80;51.20;;;;;;5122442;28;20443;-77
2024/01/18 05:03:10;;;;;;;18.97;10.57;;;10.80;51.20;;;;;;5145874;27;20474;-77
2024/01/18 05:05:38;;;;;;;16.70;10.73;;;10.80;51.10;;;;;;5141893;27;20484;-78
2024/01/18 05:08:07;;;;;;;20.30;11.00;;;10.80;51.20;;;;;;5151741;27;20434;-78
2024/01/18 05:10:35;;;;;;;18.80;10.73;;;10.80;51.10;;;;;;5148337;27;20461;-78
2024/01/18 05:13:03;;;;;;;17.93;10.30;;;10.80;51.10;;;;;;5138131;27;20521;-77
2024/01/18 05:15:31;;;;;;;20.73;11.40;;;10.80;51.90;;;;;;5147004;27;20536;-77
2024/01/18 05:17:59;;;;;;;15.37;9.40;;;10.80;51.20;;;;;;5155019;27;20508;-76
2024/01/18 05:20:30;;;;;;;17.20;10.13;;;10.80;51.10;;;;;;5147685;27;20452;-78
2024/01/18 05:22:58;;;;;;;17.03;9.40;;;10.80;51.30;;;;;;5146256;27;20486;-80
2024/01/18 05:25:26;;;;;;;15.33;9.70;;;10.80;51.30;;;;;;5167202;27;20472;-78
2024/01/18 05:27:55;;;;;;;17.40;10.10;;;10.80;51.30;;;;;;5176026;27;20441;-78
2024/01/18 05:30:23;;;;;;;15.17;9.37;;;10.80;51.40;;;;;;5169264;27;20438;-80
2024/01/18 05:32:52;;;;;;;14.00;8.90;;;10.80;51.30;;;;;;5159641;27;20450;-77
2024/01/18 05:35:19;;;;;;;15.83;9.93;;;10.80;51.40;;;;;;5140314;27;20462;-78
2024/01/18 05:37:49;;;;;;;15.17;9.20;;;10.80;51.30;;;;;;5130753;27;20563;-77
2024/01/18 05:40:17;;;;;;;14.20;8.80;;;10.80;51.30;;;;;;5131837;27;20466;-78
2024/01/18 05:42:46;;;;;;;11.00;8.00;;;10.80;51.20;;;;;;5133571;27;20486;-78
2024/01/18 05:45:14;;;;;;;13.07;8.70;;;10.70;51.20;;;;;;5134102;27;20442;-78
2024/01/18 05:47:43;;;;;;;15.03;9.27;;;10.70;51.40;;;;;;5137051;27;20443;-78
2024/01/18 05:50:11;;;;;;;13.13;8.57;;;10.70;51.40;;;;;;5138723;27;20488;-78
2024/01/18 05:52:39;;;;;;;15.03;8.27;;;10.70;51.20;;;;;;5133329;27;20565;-78
2024/01/18 05:55:09;;;;;;;16.23;9.07;;;10.80;51.40;;;;;;5132179;27;20431;-75
2024/01/18 05:57:38;;;;;;;11.63;8.13;;;10.80;51.30;;;;;;5132598;27;20578;-77
2024/01/18 06:00:07;;;;;;;11.80;8.20;;;10.70;51.30;;;;;;5133409;27;20465;-77
2024/01/18 06:02:35;;;;;;;13.63;8.60;;;10.70;51.40;;;;;;5125487;27;20477;-77
2024/01/18 06:05:06;;;;;;;13.10;7.77;;;10.70;51.30;;;;;;5138587;27;20552;-78
2024/01/18 06:07:34;;;;;;;12.87;7.70;;;10.70;51.30;;;;;;5143360;27;20439;-79
2024/01/18 06:10:03;;;;;;;16.17;9.00;;;10.70;51.20;;;;;;5135995;27;20542;-78
2024/01/18 06:12:33;;;;;;;13.77;8.17;;;10.70;51.80;;;;;;5146882;27;20489;-77
2024/01/18 06:15:02;;;;;;;13.97;8.17;;;10.70;51.00;;;;;;5126239;27;20443;-77
2024/01/18 06:17:30;;;;;;;11.57;7.47;;;10.70;51.30;;;;;;5131996;27;20515;-79
2024/01/18 06:19:59;;;;;;;13.17;7.33;;;10.70;51.30;;;;;;5128022;27;20428;-78
2024/01/18 06:22:27;;;;;;;12.17;7.23;;;10.70;51.30;;;;;;5126349;27;20519;-78
2024/01/18 06:24:55;;;;;;;13.73;8.00;;;10.70;51.20;;;;;;5125065;27;20530;-79
2024/01/18 06:27:23;;;;;;;9.60;6.90;;;10.70;51.30;;;;;;5132953;27;20486;-78
2024/01/18 06:29:54;;;;;;;13.07;7.40;;;10.70;51.20;;;;;;5145483;27;20531;-80
2024/01/18 06:32:22;;;;;;;10.23;7.60;;;10.70;51.30;;;;;;5128332;27;20505;-79
2024/01/18 06:34:51;;;;;;;11.17;7.73;;;10.70;51.40;;;;;;5142290;22;20508;-76
2024/01/18 06:37:19;;;;;;;10.33;7.07;;;10.70;51.30;;;;;;5071183;28;20442;-78
2024/01/18 06:39:47;;;;;;;13.83;7.53;;;10.70;51.20;;;;;;5070506;28;20465;-76
2024/01/18 06:42:16;;;;;;;12.37;7.73;;;10.70;51.20;;;;;;5070657;28;20446;-76
2024/01/18 06:44:45;;;;;;;9.30;6.53;;;10.70;51.20;;;;;;5066983;28;20474;-76
2024/01/18 06:47:14;;;;;;;10.43;6.60;;;10.70;51.20;;;;;;5071811;28;20473;-76
2024/01/18 06:49:43;;;;;;;10.50;6.50;;;10.70;51.20;;;;;;5061015;28;20453;-77
2024/01/18 06:52:11;;;;;;;8.73;6.77;;;10.70;51.20;;;;;;5062492;28;20442;-76
2024/01/18 06:54:39;;;;;;;10.17;6.57;;;10.70;51.20;;;;;;5054088;28;20443;-76
2024/01/18 06:57:07;;;;;;;8.37;6.27;;;10.60;51.00;;;;;;5065484;28;20434;-76
2024/01/18 06:59:35;;;;;;;11.07;6.40;;;10.70;51.20;;;;;;5064426;28;20565;-77
2024/01/18 07:02:03;;;;;;;9.67;6.10;;;10.60;51.10;;;;;;5070728;28;20509;-77
2024/01/18 07:04:33;;;;;;;8.07;6.07;;;10.70;51.20;;;;;;5071271;28;20450;-76
2024/01/18 07:07:01;;;;;;;9.67;6.43;;;10.60;51.10;;;;;;5067147;28;20453;-76
2024/01/18 07:09:29;;;;;;;7.97;6.33;;;10.60;51.10;;;;;;5054626;28;20430;-76
2024/01/18 07:11:57;;;;;;;10.47;6.20;;;10.60;51.20;;;;;;5067671;28;20441;-76
2024/01/18 07:14:25;;;;;;;10.03;6.63;;;10.60;51.20;;;;;;5065971;28;20443;-77
2024/01/18 07:16:55;;;;;;;8.67;6.03;;;10.60;51.30;;;;;;5066898;28;20429;-76
2024/01/18 07:19:23;;;;;;;7.60;5.70;;;10.60;51.80;;;;;;5069332;28;20560;-77
2024/01/18 07:21:53;;;;;;;8.80;5.57;;;10.60;51.20;;;;;;5070820;28;20434;-77
2024/01/18 07:24:21;;;;;;;7.47;5.83;;;10.60;51.30;;;;;;5068906;28;20450;-75
2024/01/18 07:26:49;;;;;;;8.83;5.80;;;10.60;51.20;;;;;;5071438;28;20444;-75
2024/01/18 07:29:17;;;;;;;8.33;5.83;;;10.60;51.30;;;;;;5070404;28;20445;-75
2024/01/18 07:31:45;;;;;;;7.50;5.50;;;10.60;51.30;;;;;;5063731;28;20478;-76
2024/01/18 07:34:16;;;;;;;8.60;5.00;;;10.60;51.20;;;;;;5072048;28;20541;-76
2024/01/18 07:36:44;;;;;;;8.13;5.20;;;10.60;51.30;;;;;;5070267;28;20482;-75
2024/01/18 07:39:15;;;;;;;8.67;6.17;;;10.60;51.20;;;;;;5071675;28;20473;-76
2024/01/18 07:41:43;;;;;;;9.60;5.80;;;10.50;51.10;;;;;;5071041;28;20846;-76
2024/01/18 07:44:11;;;;;;;8.93;5.60;;;10.60;51.20;;;;;;5071673;28;20453;-76
2024/01/18 07:46:39;;;;;;;7.30;5.83;;;10.60;51.30;;;;;;5067961;28;20459;-76
2024/01/18 07:49:07;;;;;;;7.00;5.90;;;10.50;51.10;;;;;;5065127;28;20504;-76
2024/01/18 07:51:35;;;;;;;8.13;5.40;;;10.60;51.10;;;;;;5054848;28;20430;-75
2024/01/18 07:54:04;;;;;;;8.63;5.50;;;10.60;51.20;;;;;;5063845;28;20442;-76
2024/01/18 07:56:35;;;;;;;7.03;5.07;;;10.60;51.20;;;;;;5057149;28;20447;-76
2024/01/18 07:59:03;;;;;;;6.67;5.23;;;10.60;51.20;;;;;;5063909;28;20552;-75
2024/01/18 08:01:31;;;;;;;8.37;5.73;;;10.60;51.10;;;;;;5070662;28;20512;-77
2024/01/18 08:04:04;;;;;;;9.47;6.40;;;10.50;50.90;;;;;;5058822;28;20418;-76
2024/01/18 08:06:32;;;;;;;11.30;6.37;;;10.50;50.70;;;;;;5068332;28;20445;-76
2024/01/18 08:09:00;;;;;;;9.50;5.80;;;10.50;50.70;;;;;;5071166;28;20433;-76
2024/01/18 08:11:28;;;;;;;10.00;5.93;;;10.60;50.70;;;;;;5059698;28;20445;-76
2024/01/18 08:13:57;;;;;;;8.93;5.37;;;10.60;50.60;;;;;;5062919;28;20497;-76
2024/01/18 08:16:25;;;;;;;8.60;6.10;;;10.60;50.60;;;;;;5064608;28;20468;-76
2024/01/18 08:18:53;;;;;;;8.47;5.90;;;10.60;50.40;;;;;;5069813;28;20482;-73
2024/01/18 08:21:23;;;;;;;14.80;8.70;;;10.60;50.50;;;;;;5063727;28;20438;-74
2024/01/18 08:23:51;;;;;;;13.10;8.97;;;8.80;45.60;;;;;;5057992;28;20434;-72
2024/01/18 08:26:20;;;;;;;20.20;11.50;;;6.90;49.30;;;;;;5058247;28;20461;-74
2024/01/18 08:28:48;;;;;;;26.23;12.30;;;5.70;52.00;;;;;;5059144;28;20439;-73
2024/01/18 08:31:18;;;;;;;21.30;10.90;;;5.10;54.20;;;;;;5061385;28;20527;-73
2024/01/18 08:33:46;;;;;;;21.97;11.40;;;4.50;55.00;;;;;;5060439;28;20945;-73
2024/01/18 08:36:14;;;;;;;27.40;11.90;;;3.90;56.80;;;;;;5060932;28;20473;-73
2024/01/18 08:38:42;;;;;;;18.57;10.87;;;3.40;58.20;;;;;;5062933;28;20526;-73
2024/01/18 08:41:11;;;;;;;21.07;11.40;;;2.80;60.20;;;;;;5058857;28;20449;-72
2024/01/18 08:43:39;;;;;;;17.47;10.03;;;2.70;61.80;;;;;;5057976;28;20470;-73
2024/01/18 08:46:07;;;;;;;22.03;10.60;;;2.50;63.20;;;;;;5060619;28;20664;-73
2024/01/18 08:48:36;;;;;;;16.80;10.13;;;2.60;63.90;;;;;;5061515;28;20477;-73
2024/01/18 08:51:07;;;;;;;16.63;9.50;;;2.30;66.60;;;;;;5056591;28;20451;-75
2024/01/18 08:53:35;;;;;;;17.87;9.90;;;3.90;75.50;;;;;;5063468;28;20480;-75
2024/01/18 08:56:03;;;;;;;16.30;9.43;;;5.00;71.10;;;;;;5062077;28;20486;-76
2024/01/18 08:58:31;;;;;;;15.80;10.20;;;5.90;66.60;;;;;;5063594;28;20433;-76
2024/01/18 09:00:58;;;;;;;19.03;11.60;;;6.60;63.90;;;;;;5064030;28;20525;-76
2024/01/18 09:03:27;;;;;;;23.90;13.13;;;7.10;61.50;;;;;;5061699;28;20426;-75
2024/01/18 09:05:56;;;;;;;24.33;13.70;;;7.60;59.90;;;;;;5062819;28;20457;-75
2024/01/18 09:08:24;;;;;;;20.73;14.03;;;8.00;58.50;;;;;;5061696;28;20453;-75
2024/01/18 09:10:52;;;;;;;22.00;13.20;;;8.30;57.10;;;;;;5063007;28;20437;-75
2024/01/18 09:13:20;;;;;;;24.30;12.00;;;8.60;56.20;;;;;;5063738;28;20419;-75
2024/01/18 09:15:50;;;;;;;20.00;12.43;;;8.90;55.80;;;;;;5062363;28;21035;-73
2024/01/18 09:18:18;;;;;;;22.10;12.60;;;9.20;55.30;;;;;;5064589;28;20441;-75
2024/01/18 09:20:46;;;;;;;16.60;11.67;;;9.40;55.00;;;;;;5063763;28;20476;-75
2024/01/18 09:23:15;;;;;;;20.90;10.20;;;9.70;54.80;;;;;;5062529;28;20529;-75
2024/01/18 09:25:44;;;;;;;16.07;9.60;;;9.80;53.20;;;;;;5061935;28;20530;-76
2024/01/18 09:28:12;;;;;;;15.20;9.47;;;9.90;53.20;;;;;;5063037;28;20536;-76
2024/01/18 09:30:40;;;;;;;16.07;7.70;;;10.00;52.30;;;;;;5063226;28;20531;-76
2024/01/18 09:33:11;;;;;;;9.37;6.90;;;10.00;51.70;;;;;;5061553;28;20553;-76
2024/01/18 09:35:40;;;;;;;13.07;7.37;;;10.00;51.40;;;;;;5061275;28;20477;-75
2024/01/18 09:38:10;;;;;;;11.40;6.93;;;10.10;51.60;;;;;;5061358;28;20430;-75
2024/01/18 09:40:40;;;;;;;13.47;6.50;;;10.20;51.00;;;;;;5061032;28;20478;-75
2024/01/18 09:43:09;;;;;;;8.70;6.30;;;10.20;50.90;;;;;;5063629;28;20462;-77
2024/01/18 09:45:39;;;;;;;10.27;6.27;;;10.20;50.60;;;;;;5062036;28;20454;-75
2024/01/18 09:48:08;;;;;;;7.73;6.27;;;10.20;50.50;;;;;;5064918;28;20422;-75
2024/01/18 09:50:40;;;;;;;8.37;5.80;;;10.30;50.80;;;;;;5072770;28;20430;-75
2024/01/18 09:53:07;;;;;;;9.80;6.20;;;10.30;50.20;;;;;;5071613;28;20514;-76
2024/01/18 09:55:35;;;;;;;8.70;6.10;;;10.40;50.40;;;;;;5064448;28;20511;-75
2024/01/18 09:58:05;;;;;;;8.00;5.60;;;10.40;50.20;;;;;;5071222;28;20441;-75
2024/01/18 10:00:35;;;;;;;13.47;5.90;;;10.50;50.40;;;;;;5070452;28;20516;-75
2024/01/18 10:03:03;;;;;;;10.07;5.87;;;10.70;50.10;;;;;;5071333;28;20438;-75
2024/01/18 10:05:31;;;;;;;7.27;5.33;;;10.70;50.10;;;;;;5073605;28;20517;-76
2024/01/18 10:08:00;;;;;;;5.73;4.90;;;11.00;50.30;;;;;;5073620;28;20450;-75
2024/01/18 10:10:28;;;;;;;4.97;3.80;;;11.10;49.50;;;;;;5072922;28;20606;-75
2024/01/18 10:12:56;;;;;;;5.13;3.60;;;11.20;49.60;;;;;;5072406;28;20485;-75
2024/01/18 10:15:33;;;;;;;7.50;4.63;;;11.40;49.40;;;;;;5072063;28;20489;-75
2024/01/18 10:18:02;;;;;;;5.93;3.40;;;11.60;49.20;;;;;;5072040;28;20499;-74
2024/01/18 10:20:31;;;;;;;5.67;3.90;;;11.70;48.60;;;;;;5071960;28;20540;-75
2024/01/18 10:23:00;;;;;;;4.90;3.60;;;11.90;48.70;;;;;;5071530;28;20445;-75
2024/01/18 10:25:31;;;;;;;4.93;3.20;;;12.10;49.30;;;;;;5072374;28;21000;-75
2024/01/18 10:27:58;;;;;;;4.70;3.40;;;12.30;48.40;;;;;;5071889;28;20449;-75
2024/01/18 10:30:27;;;;;;;5.70;3.53;;;12.60;48.50;;;;;;5073480;28;20445;-75
2024/01/18 10:32:56;;;;;;;4.50;3.53;;;12.70;47.60;;;;;;5071621;28;20441;-75
2024/01/18 10:35:25;;;;;;;6.10;3.37;;;12.80;47.80;;;;;;5072137;28;20465;-75
2024/01/18 10:38:01;;;;;;;4.13;3.10;;;12.90;47.10;;;;;;5072093;28;20442;-75
2024/01/18 10:40:30;;;;;;;3.10;2.80;;;13.00;47.60;;;;;;5071262;28;20469;-76
2024/01/18 10:42:59;;;;;;;5.80;3.87;;;13.20;46.90;;;;;;5071160;28;20445;-75
2024/01/18 10:45:29;;;;;;;6.37;3.70;;;13.30;47.10;;;;;;5071468;28;20565;-75
2024/01/18 10:47:58;;;;;;;5.63;3.50;;;13.50;46.80;;;;;;5071547;28;20494;-76
2024/01/18 10:50:27;;;;;;;7.17;3.60;;;13.70;46.60;;;;;;5071401;28;20541;-75
2024/01/18 10:52:55;;;;;;;7.73;3.40;;;13.80;46.50;;;;;;5071241;28;20433;-75
2024/01/18 10:55:23;;;;;;;3.70;3.20;;;14.00;47.20;;;;;;5071391;28;20507;-75
2024/01/18 10:57:52;;;;;;;6.77;3.00;;;14.50;46.80;;;;;;5072477;28;20533;-75
2024/01/18 11:00:21;;;;;;;2.73;2.50;;;14.80;46.40;;;;;;5072812;28;20470;-77
2024/01/18 11:02:49;;;;;;;3.20;2.60;;;15.10;45.70;;;;;;5070924;28;20441;-76
2024/01/18 11:05:20;;;;;;;3.70;2.27;;;15.30;45.00;;;;;;5071058;28;20469;-75
2024/01/18 11:07:49;;;;;;;4.60;2.00;;;15.20;44.00;;;;;;5071453;28;20446;-77
2024/01/18 11:10:18;;;;;;;2.30;2.10;;;15.20;44.50;;;;;;5070605;28;20504;-75
2024/01/18 11:12:49;;;;;;;2.20;1.90;;;15.40;44.70;;;;;;5070404;28;20445;-75
2024/01/18 11:15:17;;;;;;;2.00;1.63;;;15.70;45.00;;;;;;5071833;28;20470;-76
2024/01/18 11:17:46;;;;;;;2.27;1.73;;;15.90;44.80;;;;;;5071057;28;20426;-76
2024/01/18 11:20:15;;;;;;;2.57;1.57;;;16.30;44.30;;;;;;5071526;28;20476;-76
2024/01/18 11:22:45;;;;;;;1.50;1.40;;;16.40;43.60;;;;;;5070556;28;20437;-75
2024/01/18 11:25:13;;;;;;;4.67;1.80;;;16.40;42.90;;;;;;5071413;28;20505;-76
2024/01/18 11:27:43;;;;;;;2.70;1.87;;;16.30;42.60;;;;;;5071075;28;20438;-76
2024/01/18 11:30:12;;;;;;;1.53;1.43;;;16.30;42.50;;;;;;5071193;28;20445;-76
2024/01/18 11:32:40;;;;;;;1.50;1.40;;;16.30;42.40;;;;;;5070548;28;20445;-76
2024/01/18 11:35:09;;;;;;;1.80;1.67;;;16.30;42.70;;;;;;5070761;28;20470;-76
2024/01/18 11:37:38;;;;;;;3.13;2.10;;;16.30;42.60;;;;;;5070664;28;20433;-77
2024/01/18 11:40:09;;;;;;;3.70;2.60;;;16.30;42.80;;;;;;5070724;28;20430;-76
2024/01/18 11:42:38;;;;;;;2.60;2.13;;;16.30;42.80;;;;;;5070328;28;20545;-77
2024/01/18 11:45:15;;;;;;;2.03;1.93;;;16.30;42.60;;;;;;5070657;28;20976;-77
2024/01/18 11:47:43;;;;;;;1.77;1.67;;;16.20;42.50;;;;;;5071271;28;20962;-78
2024/01/18 11:50:11;;;;;;;2.80;2.33;;;15.80;42.40;;;;;;5070906;28;20449;-76
2024/01/18 11:52:41;;;;;;;7.60;4.63;;;15.50;42.70;;;;;;5070055;28;20938;-76
2024/01/18 11:55:11;;;;;;;4.57;3.00;;;15.40;44.10;;;;;;5069811;28;20489;-76
2024/01/18 11:57:39;;;;;;;3.30;3.00;;;15.10;43.30;;;;;;5067741;28;20468;-76
2024/01/18 12:00:08;;;;;;;2.50;2.30;;;14.70;43.80;;;;;;5061689;28;20446;-76
2024/01/18 12:02:36;;;;;;;9.13;6.33;;;14.40;44.10;;;;;;5055447;28;20443;-76
2024/01/18 12:05:07;;;;;;;15.37;7.13;;;14.30;45.00;;;;;;5055368;28;20496;-76
2024/01/18 12:07:35;;;;;;;17.10;10.03;;;14.20;45.20;;;;;;5069354;28;20440;-75
2024/01/18 12:10:03;;;;;;;22.13;10.93;;;14.10;45.30;;;;;;5069590;28;20445;-75
2024/01/18 12:12:34;;;;;;;14.93;9.00;;;14.30;45.80;;;;;;5055259;28;20486;-77
2024/01/18 12:15:03;;;;;;;14.87;9.83;;;14.60;46.30;;;;;;5049743;28;20537;-75
2024/01/18 12:17:31;;;;;;;15.40;10.80;;;15.00;45.70;;;;;;5050214;28;20451;-76
2024/01/18 12:20:00;;;;;;;16.97;11.50;;;15.50;45.90;;;;;;5050230;28;20549;-74
2024/01/18 12:22:28;;;;;;;19.17;13.13;;;15.70;44.50;;;;;;5050516;28;20477;-74
2024/01/18 12:24:56;;;;;;;19.33;12.50;;;15.80;44.60;;;;;;5054420;28;20565;-75
2024/01/18 12:27:24;;;;;;;16.93;11.50;;;15.80;44.10;;;;;;5054669;28;21023;-75
2024/01/18 12:29:54;;;;;;;18.33;11.53;;;15.80;43.60;;;;;;5054278;28;20809;-75
2024/01/18 12:32:23;;;;;;;24.40;14.43;;;15.80;43.80;;;;;;5054261;28;20447;-75
2024/01/18 12:34:57;;;;;;;21.30;13.23;;;15.70;43.40;;;;;;5054700;28;20800;-78
2024/01/18 12:37:26;;;;;;;18.67;11.47;;;15.70;43.50;;;;;;5054433;28;20449;-76
2024/01/18 12:39:54;;;;;;;15.00;10.13;;;15.50;43.20;;;;;;5054266;28;20446;-76
2024/01/18 12:42:22;;;;;;;13.33;8.93;;;15.60;44.20;;;;;;5053503;28;20485;-76
2024/01/18 12:44:52;;;;;;;11.47;7.83;;;15.80;44.30;;;;;;5054342;28;20470;-76